Time;durP1;ratioP1;P1;durP2;ratioP2;P2;SDS_P1;SDS_P2;PMS_P1;PMS_P2;Temp;Humidity;BMP_temperature;BMP_pressure;BME280_temperature;BME280_humidity;BME280_pressure;Samples;Min_cycle;Max_cycle;Signal;HPM_P1;HPM_P2
2022/01/01 17:23:08;;;;;;;6.00;5.43;;;;;;;8.25;100.00;62846.69;5136170;27;20370;-76
2022/01/01 17:25:37;;;;;;;7.03;5.88;;;;;;;8.35;100.00;62861.59;5119219;28;20207;-75
2022/01/01 17:28:09;;;;;;;8.35;6.10;;;;;;;8.45;100.00;62869.91;5123792;28;20436;-77
2022/01/01 17:30:37;;;;;;;8.15;6.50;;;;;;;8.46;100.00;62867.88;5120972;28;20256;-77
2022/01/01 17:33:16;;;;;;;5.45;5.00;;;;;;;8.58;100.00;62883.31;5126563;28;20210;-76
2022/01/01 17:36:07;;;;;;;6.03;5.43;;;;;;;8.66;100.00;62886.00;5120028;28;20209;-76
2022/01/01 17:41:24;;;;;;;7.47;5.57;;;;;;;8.76;100.00;62899.38;5122325;28;20226;-76
2022/01/01 17:43:51;;;;;;;8.85;6.63;;;;;;;8.83;100.00;62908.63;5121272;28;20225;-75
2022/01/01 17:46:19;;;;;;;6.78;6.10;;;;;;;8.82;100.00;62905.06;5123683;28;20483;-76
2022/01/01 17:48:48;;;;;;;5.63;5.10;;;;;;;8.84;100.00;62907.13;5121381;28;20554;-76
2022/01/01 17:51:17;;;;;;;5.22;4.82;;;;;;;8.82;100.00;62903.03;5121236;28;20204;-75
2022/01/01 17:53:45;;;;;;;6.55;5.30;;;;;;;8.88;100.00;62914.31;5120194;28;20237;-76
2022/01/01 17:56:13;;;;;;;6.05;5.45;;;;;;;8.90;100.00;62915.88;5113222;28;20200;-76
2022/01/01 17:58:42;;;;;;;5.88;5.30;;;;;;;8.88;100.00;62911.25;5121903;28;20427;-77
2022/01/01 18:01:11;;;;;;;5.57;4.97;;;;;;;8.98;100.00;62924.13;5121071;28;20227;-76
2022/01/01 18:03:41;;;;;;;25.90;16.63;;;;;;;9.06;100.00;62930.38;5121041;28;20261;-76
2022/01/01 18:06:12;;;;;;;7.05;5.18;;;;;;;9.08;100.00;62934.47;5121708;28;20249;-76
2022/01/01 18:08:40;;;;;;;7.13;6.03;;;;;;;9.05;100.00;62929.34;5121579;28;20600;-76
2022/01/01 18:11:12;;;;;;;6.50;5.82;;;;;;;9.12;100.00;62933.53;5121186;28;20222;-76
2022/01/01 18:13:43;;;;;;;5.95;5.35;;;;;;;9.12;100.00;62938.59;5122370;28;20288;-77
2022/01/01 18:16:10;;;;;;;7.10;5.85;;;;;;;9.15;100.00;62937.16;5116664;28;20392;-76
2022/01/01 18:18:48;;;;;;;7.03;6.13;;;;;;;9.19;100.00;62945.84;5120648;28;20236;-76
2022/01/01 18:21:16;;;;;;;7.10;6.38;;;;;;;9.10;100.00;62931.47;5120596;28;20415;-77
2022/01/01 18:23:46;;;;;;;6.78;6.15;;;;;;;9.09;100.00;62935.50;5123674;28;20212;-78
2022/01/01 18:26:17;;;;;;;6.07;5.47;;;;;;;9.11;100.00;62935.03;5118298;28;20223;-77
2022/01/01 18:28:46;;;;;;;5.82;5.43;;;;;;;9.11;100.00;62933.00;5113853;28;20216;-76
2022/01/01 18:31:15;;;;;;;6.43;5.90;;;;;;;9.09;100.00;62936.00;5121984;28;20201;-76
2022/01/01 18:33:45;;;;;;;5.18;4.78;;;;;;;9.09;100.00;62935.50;5110771;28;20234;-76
2022/01/01 18:36:14;;;;;;;6.65;5.32;;;;;;;9.13;100.00;62940.16;5109686;28;20488;-79
2022/01/01 18:38:42;;;;;;;6.55;5.95;;;;;;;9.05;100.00;62931.38;5105635;28;20547;-75
2022/01/01 18:41:14;;;;;;;6.72;5.80;;;;;;;9.13;100.00;62937.09;5107615;28;20200;-75
2022/01/01 18:43:42;;;;;;;6.72;6.07;;;;;;;9.10;100.00;62937.06;5108236;28;20257;-76
2022/01/01 18:46:09;;;;;;;6.75;6.15;;;;;;;9.01;100.00;62922.16;5108089;28;20208;-77
2022/01/01 18:48:38;;;;;;;9.30;7.97;;;;;;;9.02;100.00;62925.75;5107714;28;20393;-76
2022/01/01 18:51:15;;;;;;;10.98;8.73;;;;;;;9.01;100.00;62922.16;5108399;28;20196;-76
2022/01/01 18:53:52;;;;;;;6.28;5.68;;;;;;;9.03;100.00;62929.31;5108356;28;20219;-77
2022/01/01 18:56:24;;;;;;;6.03;5.35;;;;;;;9.03;100.00;62929.81;5105602;28;20211;-77
2022/01/01 18:58:54;;;;;;;6.82;5.75;;;;;;;8.93;100.00;62918.97;5107667;28;20227;-77
2022/01/01 19:01:30;;;;;;;6.32;5.70;;;;;;;8.92;100.00;62915.91;5107614;28;20224;-76
2022/01/01 19:03:58;;;;;;;6.22;5.63;;;;;;;8.96;100.00;62925.13;5110271;28;20566;-76
2022/01/01 19:06:29;;;;;;;5.70;5.10;;;;;;;8.90;100.00;62913.84;5116937;28;20221;-76
2022/01/01 19:08:58;;;;;;;5.63;5.13;;;;;;;8.91;100.00;62917.44;5116130;28;20228;-76
2022/01/01 19:11:35;;;;;;;5.13;4.53;;;;;;;8.86;100.00;62909.72;5115298;28;20215;-77
2022/01/01 19:14:06;;;;;;;5.72;5.10;;;;;;;8.92;100.00;62915.91;5113866;28;20241;-76
2022/01/01 19:16:34;;;;;;;6.40;5.72;;;;;;;8.85;100.00;62905.63;5110916;28;20212;-77
2022/01/01 19:19:01;;;;;;;6.30;5.05;;;;;;;8.89;100.00;62910.28;5103340;28;20220;-76
2022/01/01 19:21:29;;;;;;;5.97;5.28;;;;;;;8.84;100.00;62912.72;5099511;28;20220;-76
2022/01/01 19:23:57;;;;;;;5.88;5.00;;;;;;;8.85;100.00;62908.16;5107759;28;20222;-75
2022/01/01 19:26:30;;;;;;;8.40;4.65;;;;;;;8.79;100.00;62901.97;5107615;28;20200;-77
2022/01/01 19:29:02;;;;;;;6.47;5.88;;;;;;;8.79;100.00;62899.94;5115678;28;20241;-75
2022/01/01 19:31:31;;;;;;;6.00;5.50;;;;;;;8.67;100.00;62890.09;5113755;28;21106;-76
2022/01/01 19:33:58;;;;;;;6.65;5.80;;;;;;;8.64;100.00;62889.00;5106437;28;20594;-76
2022/01/01 19:36:25;;;;;;;6.65;5.88;;;;;;;8.65;100.00;62893.09;5108558;28;20208;-75
2022/01/01 19:38:52;;;;;;;8.00;6.20;;;;;;;8.63;100.00;62891.03;5110041;28;20231;-76
2022/01/01 19:41:26;;;;;;;9.52;6.60;;;;;;;8.59;100.00;62881.31;5111582;28;20373;-76
2022/01/01 19:44:03;;;;;;;6.35;5.68;;;;;;;8.61;100.00;62883.38;5108929;28;20247;-75
2022/01/01 19:46:38;;;;;;;6.95;6.35;;;;;;;8.51;100.00;62878.13;5108270;28;20210;-76
2022/01/01 19:49:12;;;;;;;6.65;6.05;;;;;;;8.48;100.00;62873.00;5107344;28;20289;-77
2022/01/01 19:51:39;;;;;;;7.13;5.63;;;;;;;8.48;100.00;62873.00;5105039;28;20234;-76
2022/01/01 19:54:05;;;;;;;7.18;6.47;;;;;;;8.46;100.00;62868.38;5104650;28;20280;-77
2022/01/01 19:56:35;;;;;;;6.35;5.60;;;;;;;8.46;100.00;62868.38;5105273;28;20196;-77
2022/01/01 19:59:04;;;;;;;6.85;6.05;;;;;;;8.46;100.00;62870.41;5105268;28;20222;-77
2022/01/01 20:01:31;;;;;;;6.47;5.85;;;;;;;8.50;100.00;62875.06;5108462;28;20218;-77
2022/01/01 20:03:58;;;;;;;6.82;5.65;;;;;;;8.46;100.00;62867.88;5106288;28;20260;-77
2022/01/01 20:06:25;;;;;;;6.43;5.43;;;;;;;8.47;100.00;62871.44;5102250;28;20469;-76
2022/01/01 20:08:52;;;;;;;8.20;6.10;;;;;;;8.47;100.00;62869.44;5102642;28;20247;-77
2022/01/01 20:11:19;;;;;;;8.23;5.65;;;;;;;8.46;100.00;62865.84;5103962;28;20196;-76
2022/01/01 20:13:46;;;;;;;6.53;5.32;;;;;;;8.44;100.00;62866.31;5103911;28;20312;-76
2022/01/01 20:16:14;;;;;;;7.20;6.07;;;;;;;8.52;100.00;62871.53;5104053;28;20241;-77
2022/01/01 20:18:41;;;;;;;6.85;5.85;;;;;;;8.45;100.00;62869.91;5102026;28;20226;-76
2022/01/01 20:21:08;;;;;;;6.40;5.70;;;;;;;8.47;100.00;62866.91;5102594;28;20375;-74
2022/01/01 20:23:34;;;;;;;7.63;5.65;;;;;;;8.42;100.00;62866.28;5101202;28;20288;-75
2022/01/01 20:26:02;;;;;;;6.10;5.55;;;;;;;8.45;100.00;62869.91;5103389;28;20256;-75
2022/01/01 20:28:29;;;;;;;5.00;4.53;;;;;;;8.37;100.00;62864.16;5102472;28;20224;-74
2022/01/01 20:30:55;;;;;;;6.05;5.55;;;;;;;8.39;100.00;62860.66;5104070;28;20200;-75
2022/01/01 20:33:24;;;;;;;5.40;4.90;;;;;;;8.45;100.00;62866.84;5103346;28;20223;-75
2022/01/01 20:35:50;;;;;;;6.35;5.75;;;;;;;8.45;100.00;62866.84;5103448;28;20390;-75
2022/01/01 20:38:17;;;;;;;6.38;5.40;;;;;;;8.43;100.00;62872.38;5099623;28;20207;-76
2022/01/01 20:40:44;;;;;;;7.13;5.90;;;;;;;8.44;100.00;62863.78;5099572;28;20226;-75
2022/01/01 20:43:11;;;;;;;5.80;5.30;;;;;;;8.41;100.00;62867.78;5102826;28;20228;-76
2022/01/01 20:45:37;;;;;;;4.35;3.78;;;;;;;8.38;100.00;62862.66;5099711;28;20195;-75
2022/01/01 20:48:05;;;;;;;6.65;5.97;;;;;;;8.40;100.00;62864.72;5103636;28;20196;-75
2022/01/01 20:50:33;;;;;;;5.90;4.68;;;;;;;8.43;100.00;62862.75;5100263;28;20242;-75
2022/01/01 20:53:00;;;;;;;7.53;6.30;;;;;;;8.43;100.00;62865.28;5103008;28;20204;-76
2022/01/01 20:55:28;;;;;;;7.53;6.00;;;;;;;8.44;100.00;62868.34;5102416;28;20193;-75
2022/01/01 20:57:55;;;;;;;6.35;5.75;;;;;;;8.46;100.00;62867.88;5104350;28;20267;-75
2022/01/01 21:00:23;;;;;;;6.50;5.70;;;;;;;8.49;100.00;62874.00;5093158;28;20458;-75
2022/01/01 21:02:54;;;;;;;7.03;6.32;;;;;;;8.45;100.00;62867.34;5105283;28;20394;-75
2022/01/01 21:05:22;;;;;;;6.80;6.20;;;;;;;8.51;100.00;62873.03;5106600;28;20208;-75
2022/01/01 21:07:52;;;;;;;6.13;5.18;;;;;;;8.54;100.00;62876.66;5104142;28;20503;-74
2022/01/01 21:10:20;;;;;;;10.10;5.38;;;;;;;8.56;100.00;62878.22;5100534;28;20196;-75
2022/01/01 21:12:52;;;;;;;7.20;5.82;;;;;;;8.59;100.00;62881.81;5103402;28;20222;-74
2022/01/01 21:15:19;;;;;;;9.32;6.85;;;;;;;8.64;100.00;62883.94;5103826;28;20226;-75
2022/01/01 21:17:46;;;;;;;7.57;6.43;;;;;;;8.60;100.00;62887.94;5101320;28;20412;-76
2022/01/01 21:20:12;;;;;;;9.55;6.05;;;;;;;8.63;100.00;62885.44;5103411;28;20569;-76
2022/01/01 21:22:39;;;;;;;7.90;6.07;;;;;;;8.63;100.00;62880.38;5102569;28;20223;-76
2022/01/01 21:25:09;;;;;;;6.93;6.20;;;;;;;8.65;100.00;62888.00;5101268;28;20711;-76
2022/01/01 21:27:35;;;;;;;7.28;6.57;;;;;;;8.63;100.00;62885.94;5102345;28;20245;-76
2022/01/01 21:30:02;;;;;;;7.28;5.90;;;;;;;8.61;100.00;62883.38;5103536;28;20215;-74
2022/01/01 21:32:30;;;;;;;6.57;5.97;;;;;;;8.62;100.00;62886.94;5104968;28;20196;-75
2022/01/01 21:34:56;;;;;;;9.38;6.72;;;;;;;8.63;100.00;62885.94;5109244;28;20275;-75
2022/01/01 21:37:23;;;;;;;7.15;6.47;;;;;;;8.60;100.00;62880.31;5104715;28;20200;-76
2022/01/01 21:39:50;;;;;;;7.88;6.00;;;;;;;8.59;100.00;62876.75;5103331;28;20604;-76
2022/01/01 21:42:19;;;;;;;7.65;6.32;;;;;;;8.64;100.00;62883.94;5099301;28;20281;-75
2022/01/01 21:44:46;;;;;;;8.25;6.35;;;;;;;8.66;100.00;62883.97;5099114;28;20408;-75
2022/01/01 21:47:13;;;;;;;7.32;6.25;;;;;;;8.65;100.00;62890.03;5105040;28;20199;-75
2022/01/01 21:49:40;;;;;;;6.05;5.45;;;;;;;8.67;100.00;62889.56;5107394;28;20253;-74
2022/01/01 21:52:06;;;;;;;6.88;6.20;;;;;;;8.68;100.00;62893.16;5114624;28;20211;-74
2022/01/01 21:54:33;;;;;;;6.80;5.80;;;;;;;8.69;100.00;62889.09;5115698;28;20222;-75
2022/01/01 21:57:00;;;;;;;8.40;6.63;;;;;;;8.71;100.00;62891.69;5111933;28;20463;-75
2022/01/01 21:59:29;;;;;;;7.18;5.88;;;;;;;8.81;100.00;62904.03;5105541;28;20212;-75
2022/01/01 22:01:55;;;;;;;5.70;5.20;;;;;;;8.86;100.00;62907.19;5103027;28;20242;-75
2022/01/01 22:04:22;;;;;;;10.75;5.35;;;;;;;8.86;100.00;62911.72;5102781;28;20224;-75
2022/01/01 22:06:49;;;;;;;6.53;5.80;;;;;;;8.82;100.00;62905.56;5108269;28;20400;-75
2022/01/01 22:09:16;;;;;;;6.53;5.85;;;;;;;8.88;100.00;62911.25;5105314;28;20287;-75
2022/01/01 22:11:43;;;;;;;6.95;6.25;;;;;;;8.83;100.00;62906.09;5106823;28;20305;-76
2022/01/01 22:14:10;;;;;;;8.13;4.88;;;;;;;8.80;100.00;62908.59;5106956;28;20269;-75
2022/01/01 22:16:38;;;;;;;6.97;5.32;;;;;;;8.78;100.00;62904.00;5107837;28;20203;-75
2022/01/01 22:19:05;;;;;;;6.15;5.55;;;;;;;8.80;100.00;62903.00;5106994;28;20227;-75
2022/01/01 22:21:32;;;;;;;7.88;6.13;;;;;;;8.84;100.00;62907.13;5107680;28;20216;-75
2022/01/01 22:23:59;;;;;;;7.53;5.35;;;;;;;8.81;100.00;62901.50;5107310;28;20240;-75
2022/01/01 22:26:25;;;;;;;6.80;5.93;;;;;;;8.80;100.00;62906.03;5106633;28;20223;-76
2022/01/01 22:28:52;;;;;;;5.50;4.95;;;;;;;8.73;100.00;62895.78;5110800;28;20224;-75
2022/01/01 22:31:19;;;;;;;7.40;6.45;;;;;;;8.74;100.00;62894.25;5107944;28;20203;-75
2022/01/01 22:33:47;;;;;;;7.07;5.90;;;;;;;8.73;100.00;62896.28;5107782;28;20265;-75
2022/01/01 22:36:14;;;;;;;6.43;5.82;;;;;;;8.69;100.00;62889.09;5106106;28;20204;-74
2022/01/01 22:38:41;;;;;;;6.82;6.10;;;;;;;8.68;100.00;62893.66;5107356;28;20277;-75
2022/01/01 22:41:07;;;;;;;6.65;5.78;;;;;;;8.67;100.00;62890.09;5107384;28;20222;-74
2022/01/01 22:43:39;;;;;;;7.35;6.00;;;;;;;8.62;100.00;62887.47;5108213;28;20276;-75
2022/01/01 22:46:06;;;;;;;7.40;5.60;;;;;;;8.69;100.00;62891.63;5107627;28;20488;-75
2022/01/01 22:48:33;;;;;;;6.93;5.75;;;;;;;8.65;100.00;62884.97;5105561;28;20273;-75
2022/01/01 22:51:01;;;;;;;6.57;5.97;;;;;;;8.60;100.00;62882.84;5109750;28;20196;-74
2022/01/01 22:53:28;;;;;;;7.43;6.78;;;;;;;8.69;100.00;62894.69;5095520;28;20443;-74
2022/01/01 22:55:55;;;;;;;6.43;5.80;;;;;;;8.73;100.00;62893.22;5107289;28;20196;-76
2022/01/01 22:58:22;;;;;;;6.43;5.68;;;;;;;8.69;100.00;62887.06;5107984;28;20219;-76
2022/01/01 23:01:15;;;;;;;7.10;6.43;;;;;;;8.79;100.00;62901.97;5106450;28;20208;-75
2022/01/01 23:03:42;;;;;;;7.70;6.78;;;;;;;8.83;100.00;62904.09;5107499;28;20238;-75
2022/01/01 23:06:11;;;;;;;7.75;6.90;;;;;;;8.86;100.00;62904.63;5099568;28;20203;-74
2022/01/01 23:08:38;;;;;;;7.88;6.97;;;;;;;8.88;100.00;62911.25;5111187;28;20224;-75
2022/01/01 23:11:05;;;;;;;9.68;7.10;;;;;;;8.96;100.00;62922.59;5105599;28;20283;-76
2022/01/01 23:13:34;;;;;;;7.60;6.22;;;;;;;9.00;100.00;62926.72;5101056;28;20231;-76
2022/01/01 23:16:12;;;;;;;7.88;7.07;;;;;;;9.00;100.00;62926.72;5106117;28;20207;-75
2022/01/01 23:19:01;;;;;;;9.30;7.53;;;;;;;9.06;100.00;62932.41;5110149;28;20223;-75
2022/01/01 23:21:39;;;;;;;8.73;7.80;;;;;;;9.02;100.00;62928.81;5107778;28;20439;-75
2022/01/01 23:24:08;;;;;;;9.68;7.63;;;;;;;9.02;100.00;62928.28;5093623;28;20532;-76
2022/01/01 23:26:37;;;;;;;8.13;7.22;;;;;;;9.07;100.00;62928.38;5106881;28;20204;-76
2022/01/01 23:29:07;;;;;;;9.35;8.10;;;;;;;9.01;100.00;62925.22;5105812;28;20235;-75
2022/01/01 23:31:38;;;;;;;9.73;8.25;;;;;;;9.01;100.00;62925.22;5106504;28;20260;-75
2022/01/01 23:34:12;;;;;;;10.88;7.45;;;;;;;9.08;100.00;62929.91;5106297;28;20224;-76
2022/01/01 23:36:40;;;;;;;13.98;8.57;;;;;;;9.04;100.00;62930.34;5100752;28;20207;-75
2022/01/01 23:39:09;;;;;;;8.88;7.20;;;;;;;9.12;100.00;62933.53;5108612;28;20224;-74
2022/01/01 23:41:37;;;;;;;10.15;8.63;;;;;;;9.11;100.00;62935.03;5104599;28;20208;-76
2022/01/01 23:44:07;;;;;;;9.55;8.32;;;;;;;9.15;100.00;62941.72;5107162;28;20240;-75
2022/01/01 23:46:35;;;;;;;8.40;7.55;;;;;;;9.16;100.00;62942.75;5104145;28;20200;-75
2022/01/01 23:49:03;;;;;;;9.77;8.20;;;;;;;9.16;100.00;62943.25;5105807;28;20261;-75
2022/01/01 23:51:39;;;;;;;9.57;7.78;;;;;;;9.24;100.00;62945.94;5099979;28;20197;-75
2022/01/01 23:54:11;;;;;;;8.70;7.22;;;;;;;9.21;100.00;62947.91;5090998;28;20215;-75
2022/01/01 23:56:42;;;;;;;7.90;7.10;;;;;;;9.24;100.00;62951.00;5104697;28;20192;-75
2022/01/01 23:59:24;;;;;;;8.43;7.00;;;;;;;9.25;100.00;62949.50;5106680;28;20225;-75
